Sunday, July 22, 2018, 12:49 PM GMT
Back to Local

CYMX, Montreal / Mirabel

Location: , , Canada Lat: 45.683
Local Time: 12:49 PM GMT (12:49 GMT) Lon: -74.033
Time Zone: GMT Elev: 269 ft

Show me the last for .
Show Decoded

2018-07-22 12:00 METAR CYMX 221200Z 06005KT 340V120 35SM FEW075 BKN210 BKN250 17/15 A3005 RMK
                 ACC2CI3CI2 SLP178 DENSITY ALT 500FT =
2018-07-22 11:00 METAR CYMX 221100Z 05004KT 010V110 35SM FEW080 SCT170 BKN250 17/14 A3005 RMK
                 ACC1AC2CI4 SLP179 DENSITY ALT 500FT =
2018-07-22 10:00 METAR CYMX 221000Z 05003KT 010V090 45SM FEW060 SCT120 BKN250 16/12 A3005 RMK
                 SC1AC2CI4 SLP178 DENSITY ALT 300FT =
2018-07-22 09:00 METAR CYMX 220900Z 03004KT 25SM BKN220 17/12 A3005 RMK CI5 SLP176 DENSITY ALT
                 400FT =
2018-07-22 08:00 METAR CYMX 220800Z 07003KT 040V100 25SM BKN250 17/12 A3005 RMK CI5 SLP177
                 DENSITY ALT 500FT =
2018-07-22 07:00 METAR CYMX 220700Z 05003KT 25SM SCT250 18/14 A3005 RMK CI4 SLP176 DENSITY ALT
                 500FT =
2018-07-22 06:00 METAR CYMX 220600Z 14004KT 25SM BKN250 20/14 A3005 RMK CI5 SLP177 DENSITY ALT
                 800FT =
2018-07-22 05:00 METAR CYMX 220500Z 16006KT 25SM FEW250 21/14 A3005 RMK CI2 SLP176 DENSITY ALT
                 900FT =
2018-07-22 04:00 METAR CYMX 220400Z 14004KT 25SM SCT120 22/14 A3005 RMK AC3 SLP177 DENSITY ALT
                 1000FT =
2018-07-22 03:00 METAR CYMX 220300Z 00000KT 25SM SCT120 20/15 A3005 RMK AC3 SLP177 DENSITY ALT
                 800FT =
2018-07-22 02:00 METAR CYMX 220200Z 07003KT 25SM FEW120 21/15 A3005 RMK AC1 SLP176 DENSITY ALT
                 1000FT =
2018-07-22 01:00 METAR CYMX 220100Z 13004KT 25SM FEW120 22/16 A3004 RMK AC1 SLP173 DENSITY ALT
                 1000FT =
2018-07-22 00:00 METAR CYMX 220000Z VRB02KT 45SM FEW060 FEW180 SCT250 25/20 A3002 RMK CU1AC1CI1
                 SLP169 DENSITY ALT 1400FT =
2018-07-21 23:00 METAR CYMX 212300Z 16003KT 45SM FEW060 FEW180 FEW250 27/17 A3002 RMK CU1AC1CI1
                 CU TR SLP168 DENSITY ALT 1700FT =
2018-07-21 22:00 METAR CYMX 212200Z 15006KT 080V170 45SM FEW060 FEW180 FEW250 29/16 A3002 RMK
                 CU1AC1CI1 CU TR AC TR SLP167 DENSITY ALT 1900FT =
2018-07-21 21:00 METAR CYMX 212100Z 13006KT 100V180 45SM FEW060 FEW180 SCT250 30/15 A3003 RMK
                 CU1AC1CI2 CU TR SLP172 DENSITY ALT 2000FT =
2018-07-21 20:00 METAR CYMX 212000Z 13009KT 120V180 45SM FEW060 FEW180 FEW200 SCT250 BKN300 30/14
                 A3004 RMK CU1AC1CI1CI2CI1 CU TR SLP174 DENSITY ALT 1900FT =
2018-07-21 19:00 METAR CYMX 211900Z 15008KT 35SM FEW055 SCT180 BKN250 28/14 A3005 RMK CU1AC2CI2
                 SLP178 DENSITY ALT 1800FT =
2018-07-21 18:00 METAR CYMX 211800Z 11006KT 090V160 45SM FEW055 FEW200 BKN250 BKN300 29/16 A3007
                 RMK CU1CI1CI4CI1 SLP183 DENSITY ALT 1900FT =
2018-07-21 17:00 METAR CYMX 211700Z 11003KT 060V150 45SM FEW053 SCT200 BKN250 BKN300 28/17 A3007
                 RMK CU2CI1CI3CI1 SLP185 DENSITY ALT 1700FT =
2018-07-21 16:00 METAR CYMX 211600Z 00000KT 35SM FEW050 SCT200 BKN250 BKN300 27/17 A3009 RMK
                 CU2CI1CI3CI1 SLP192 DENSITY ALT 1600FT =
2018-07-21 15:00 METAR CYMX 211500Z 10003KT 45SM FEW050 SCT250 27/16 A3010 RMK CU1CI4 CU TR
                 SLP195 DENSITY ALT 1500FT =
2018-07-21 14:00 METAR CYMX 211400Z 00000KT 35SM FEW150 SCT250 25/18 A3011 RMK AC1CI4 AC TR
                 SLP196 DENSITY ALT 1300FT =
2018-07-21 13:00 METAR CYMX 211300Z 00000KT 35SM SCT250 23/17 A3011 RMK CI4 SLP198 DENSITY ALT
                 1100FT =

Support USWX by starting your Amazon purchase here.